sensor_id;sensor_type;location;lat;lon;timestamp;P1;durP1;ratioP1;P2;durP2;ratioP2
14348;SDS011;7258;50.376;8.742;2023-06-22T00:01:42;7.15;;;6.53;;
14348;SDS011;7258;50.376;8.742;2023-06-22T00:04:03;6.78;;;6.05;;
14348;SDS011;7258;50.376;8.742;2023-06-22T00:06:46;8.52;;;7.00;;
14348;SDS011;7258;50.376;8.742;2023-06-22T00:09:37;7.35;;;6.65;;
14348;SDS011;7258;50.376;8.742;2023-06-22T00:12:42;7.03;;;6.32;;
14348;SDS011;7258;50.376;8.742;2023-06-22T00:15:17;7.38;;;6.78;;
14348;SDS011;7258;50.376;8.742;2023-06-22T00:17:37;6.60;;;6.10;;
14348;SDS011;7258;50.376;8.742;2023-06-22T00:20:36;7.70;;;7.00;;
14348;SDS011;7258;50.376;8.742;2023-06-22T00:28:40;7.18;;;6.55;;
14348;SDS011;7258;50.376;8.742;2023-06-22T00:31:04;8.27;;;7.53;;
14348;SDS011;7258;50.376;8.742;2023-06-22T00:36:09;7.80;;;7.20;;
14348;SDS011;7258;50.376;8.742;2023-06-22T00:41:04;9.07;;;8.18;;
14348;SDS011;7258;50.376;8.742;2023-06-22T00:46:11;8.52;;;7.72;;
14348;SDS011;7258;50.376;8.742;2023-06-22T00:51:16;8.13;;;7.43;;
14348;SDS011;7258;50.376;8.742;2023-06-22T00:53:45;7.90;;;7.10;;
14348;SDS011;7258;50.376;8.742;2023-06-22T00:55:58;7.65;;;7.00;;
14348;SDS011;7258;50.376;8.742;2023-06-22T00:58:15;7.95;;;7.25;;
14348;SDS011;7258;50.376;8.742;2023-06-22T01:08:51;7.85;;;7.10;;
14348;SDS011;7258;50.376;8.742;2023-06-22T01:11:26;7.75;;;7.15;;
14348;SDS011;7258;50.376;8.742;2023-06-22T01:14:47;8.00;;;7.20;;
14348;SDS011;7258;50.376;8.742;2023-06-22T01:17:45;7.68;;;6.95;;
14348;SDS011;7258;50.376;8.742;2023-06-22T01:20:04;7.25;;;6.65;;
14348;SDS011;7258;50.376;8.742;2023-06-22T01:26:11;7.63;;;6.93;;
14348;SDS011;7258;50.376;8.742;2023-06-22T01:29:09;10.40;;;7.20;;
14348;SDS011;7258;50.376;8.742;2023-06-22T01:31:18;7.95;;;7.25;;
14348;SDS011;7258;50.376;8.742;2023-06-22T01:33:37;8.20;;;7.50;;
14348;SDS011;7258;50.376;8.742;2023-06-22T01:35:44;7.88;;;7.18;;
14348;SDS011;7258;50.376;8.742;2023-06-22T01:37:47;8.95;;;8.25;;
14348;SDS011;7258;50.376;8.742;2023-06-22T01:39:52;8.90;;;8.20;;
14348;SDS011;7258;50.376;8.742;2023-06-22T01:41:56;10.02;;;9.00;;
14348;SDS011;7258;50.376;8.742;2023-06-22T01:44:02;10.18;;;9.27;;
14348;SDS011;7258;50.376;8.742;2023-06-22T01:46:08;10.68;;;9.88;;
14348;SDS011;7258;50.376;8.742;2023-06-22T01:48:12;11.43;;;10.43;;
14348;SDS011;7258;50.376;8.742;2023-06-22T01:50:15;10.77;;;9.77;;
14348;SDS011;7258;50.376;8.742;2023-06-22T01:52:19;11.18;;;10.27;;
14348;SDS011;7258;50.376;8.742;2023-06-22T01:54:23;12.30;;;11.20;;
14348;SDS011;7258;50.376;8.742;2023-06-22T01:56:26;11.90;;;10.80;;
14348;SDS011;7258;50.376;8.742;2023-06-22T01:58:29;12.25;;;11.20;;
14348;SDS011;7258;50.376;8.742;2023-06-22T02:00:37;12.98;;;11.93;;
14348;SDS011;7258;50.376;8.742;2023-06-22T02:02:46;13.30;;;12.20;;
14348;SDS011;7258;50.376;8.742;2023-06-22T02:04:56;13.15;;;11.95;;
14348;SDS011;7258;50.376;8.742;2023-06-22T02:07:01;17.10;;;12.23;;
14348;SDS011;7258;50.376;8.742;2023-06-22T02:09:11;13.55;;;12.45;;
14348;SDS011;7258;50.376;8.742;2023-06-22T02:11:18;14.38;;;12.30;;
14348;SDS011;7258;50.376;8.742;2023-06-22T02:13:24;14.70;;;13.40;;
14348;SDS011;7258;50.376;8.742;2023-06-22T02:15:27;14.57;;;13.18;;
14348;SDS011;7258;50.376;8.742;2023-06-22T02:17:32;15.00;;;13.60;;
14348;SDS011;7258;50.376;8.742;2023-06-22T02:19:36;15.77;;;14.38;;
14348;SDS011;7258;50.376;8.742;2023-06-22T02:21:40;15.48;;;14.05;;
14348;SDS011;7258;50.376;8.742;2023-06-22T02:23:46;15.88;;;14.48;;
14348;SDS011;7258;50.376;8.742;2023-06-22T02:25:57;15.77;;;14.20;;
14348;SDS011;7258;50.376;8.742;2023-06-22T02:28:07;16.10;;;14.38;;
14348;SDS011;7258;50.376;8.742;2023-06-22T02:30:10;15.13;;;13.88;;
14348;SDS011;7258;50.376;8.742;2023-06-22T02:32:13;15.77;;;14.25;;
14348;SDS011;7258;50.376;8.742;2023-06-22T02:34:21;15.10;;;13.77;;
14348;SDS011;7258;50.376;8.742;2023-06-22T02:36:24;16.60;;;13.70;;
14348;SDS011;7258;50.376;8.742;2023-06-22T02:38:35;14.85;;;13.48;;
14348;SDS011;7258;50.376;8.742;2023-06-22T02:40:43;15.93;;;14.27;;
14348;SDS011;7258;50.376;8.742;2023-06-22T02:42:52;14.88;;;13.65;;
14348;SDS011;7258;50.376;8.742;2023-06-22T02:45:05;15.98;;;14.40;;
14348;SDS011;7258;50.376;8.742;2023-06-22T02:47:38;16.23;;;14.73;;
14348;SDS011;7258;50.376;8.742;2023-06-22T02:49:56;16.35;;;14.70;;
14348;SDS011;7258;50.376;8.742;2023-06-22T02:52:44;16.02;;;14.45;;
14348;SDS011;7258;50.376;8.742;2023-06-22T02:58:08;14.73;;;13.40;;
14348;SDS011;7258;50.376;8.742;2023-06-22T03:00:59;15.20;;;13.90;;
14348;SDS011;7258;50.376;8.742;2023-06-22T03:03:20;15.07;;;13.68;;
14348;SDS011;7258;50.376;8.742;2023-06-22T03:12:25;15.13;;;13.85;;
14348;SDS011;7258;50.376;8.742;2023-06-22T03:14:51;16.52;;;14.88;;
14348;SDS011;7258;50.376;8.742;2023-06-22T03:17:17;16.77;;;14.98;;
14348;SDS011;7258;50.376;8.742;2023-06-22T03:19:20;16.83;;;15.15;;
14348;SDS011;7258;50.376;8.742;2023-06-22T03:21:37;17.27;;;15.63;;
14348;SDS011;7258;50.376;8.742;2023-06-22T03:23:51;17.15;;;15.23;;
14348;SDS011;7258;50.376;8.742;2023-06-22T03:26:05;17.92;;;16.17;;
14348;SDS011;7258;50.376;8.742;2023-06-22T03:28:32;17.48;;;15.85;;
14348;SDS011;7258;50.376;8.742;2023-06-22T03:30:42;18.02;;;16.17;;
14348;SDS011;7258;50.376;8.742;2023-06-22T03:33:08;17.08;;;15.57;;
14348;SDS011;7258;50.376;8.742;2023-06-22T03:37:51;20.67;;;18.60;;
14348;SDS011;7258;50.376;8.742;2023-06-22T03:39:54;20.25;;;18.27;;
14348;SDS011;7258;50.376;8.742;2023-06-22T03:41:57;20.30;;;18.50;;
14348;SDS011;7258;50.376;8.742;2023-06-22T03:44:01;20.42;;;18.58;;
14348;SDS011;7258;50.376;8.742;2023-06-22T03:46:04;20.33;;;18.05;;
14348;SDS011;7258;50.376;8.742;2023-06-22T03:48:08;19.80;;;18.00;;
14348;SDS011;7258;50.376;8.742;2023-06-22T03:50:11;19.42;;;17.33;;
14348;SDS011;7258;50.376;8.742;2023-06-22T03:52:15;19.30;;;17.50;;
14348;SDS011;7258;50.376;8.742;2023-06-22T03:54:17;18.02;;;16.52;;
14348;SDS011;7258;50.376;8.742;2023-06-22T03:56:20;17.20;;;15.70;;
14348;SDS011;7258;50.376;8.742;2023-06-22T03:58:23;17.80;;;16.20;;
14348;SDS011;7258;50.376;8.742;2023-06-22T04:00:27;18.05;;;16.55;;
14348;SDS011;7258;50.376;8.742;2023-06-22T04:02:31;17.08;;;15.52;;
14348;SDS011;7258;50.376;8.742;2023-06-22T04:04:33;17.05;;;15.38;;
14348;SDS011;7258;50.376;8.742;2023-06-22T04:06:37;17.70;;;16.05;;
14348;SDS011;7258;50.376;8.742;2023-06-22T04:08:40;15.93;;;14.63;;
14348;SDS011;7258;50.376;8.742;2023-06-22T04:10:43;16.05;;;14.48;;
14348;SDS011;7258;50.376;8.742;2023-06-22T04:12:46;16.15;;;14.48;;
14348;SDS011;7258;50.376;8.742;2023-06-22T04:14:52;16.05;;;14.63;;
14348;SDS011;7258;50.376;8.742;2023-06-22T04:16:57;15.30;;;14.10;;
14348;SDS011;7258;50.376;8.742;2023-06-22T04:19:03;17.92;;;13.52;;
14348;SDS011;7258;50.376;8.742;2023-06-22T04:21:06;14.25;;;12.95;;
14348;SDS011;7258;50.376;8.742;2023-06-22T04:23:09;14.68;;;13.38;;
14348;SDS011;7258;50.376;8.742;2023-06-22T04:25:11;14.48;;;13.25;;
14348;SDS011;7258;50.376;8.742;2023-06-22T04:27:14;14.02;;;12.82;;
14348;SDS011;7258;50.376;8.742;2023-06-22T04:29:17;13.95;;;12.65;;
14348;SDS011;7258;50.376;8.742;2023-06-22T04:31:20;13.50;;;12.20;;
14348;SDS011;7258;50.376;8.742;2023-06-22T04:33:33;13.30;;;12.18;;
14348;SDS011;7258;50.376;8.742;2023-06-22T04:35:36;13.93;;;12.60;;
14348;SDS011;7258;50.376;8.742;2023-06-22T04:37:42;13.50;;;12.30;;
14348;SDS011;7258;50.376;8.742;2023-06-22T04:39:49;13.50;;;12.20;;
14348;SDS011;7258;50.376;8.742;2023-06-22T04:41:53;13.93;;;12.73;;
14348;SDS011;7258;50.376;8.742;2023-06-22T04:44:01;13.43;;;12.20;;
14348;SDS011;7258;50.376;8.742;2023-06-22T04:46:06;13.98;;;12.65;;
14348;SDS011;7258;50.376;8.742;2023-06-22T04:48:09;14.15;;;12.95;;
14348;SDS011;7258;50.376;8.742;2023-06-22T04:50:18;14.57;;;13.35;;
14348;SDS011;7258;50.376;8.742;2023-06-22T04:52:22;12.88;;;11.80;;
14348;SDS011;7258;50.376;8.742;2023-06-22T04:54:26;13.80;;;12.65;;
14348;SDS011;7258;50.376;8.742;2023-06-22T04:56:29;15.30;;;13.80;;
14348;SDS011;7258;50.376;8.742;2023-06-22T04:58:32;14.10;;;12.90;;
14348;SDS011;7258;50.376;8.742;2023-06-22T05:00:34;13.75;;;12.23;;
14348;SDS011;7258;50.376;8.742;2023-06-22T05:02:38;13.93;;;12.60;;
14348;SDS011;7258;50.376;8.742;2023-06-22T05:04:41;13.32;;;12.00;;
14348;SDS011;7258;50.376;8.742;2023-06-22T05:06:46;14.18;;;12.65;;
14348;SDS011;7258;50.376;8.742;2023-06-22T05:08:49;18.60;;;13.85;;
14348;SDS011;7258;50.376;8.742;2023-06-22T05:10:51;13.68;;;12.50;;
14348;SDS011;7258;50.376;8.742;2023-06-22T05:13:06;16.05;;;13.85;;
14348;SDS011;7258;50.376;8.742;2023-06-22T05:15:09;13.70;;;12.27;;
14348;SDS011;7258;50.376;8.742;2023-06-22T05:17:12;18.63;;;13.32;;
14348;SDS011;7258;50.376;8.742;2023-06-22T05:19:16;17.52;;;12.80;;
14348;SDS011;7258;50.376;8.742;2023-06-22T05:21:21;14.35;;;13.02;;
14348;SDS011;7258;50.376;8.742;2023-06-22T05:23:26;19.00;;;13.38;;
14348;SDS011;7258;50.376;8.742;2023-06-22T05:25:31;20.02;;;12.80;;
14348;SDS011;7258;50.376;8.742;2023-06-22T05:27:34;17.30;;;13.13;;
14348;SDS011;7258;50.376;8.742;2023-06-22T05:29:40;16.02;;;13.88;;
14348;SDS011;7258;50.376;8.742;2023-06-22T05:31:44;22.85;;;13.90;;
14348;SDS011;7258;50.376;8.742;2023-06-22T05:33:47;22.80;;;15.43;;
14348;SDS011;7258;50.376;8.742;2023-06-22T05:35:51;17.50;;;13.80;;
14348;SDS011;7258;50.376;8.742;2023-06-22T05:37:54;16.27;;;14.75;;
14348;SDS011;7258;50.376;8.742;2023-06-22T05:39:59;18.02;;;14.40;;
14348;SDS011;7258;50.376;8.742;2023-06-22T05:42:02;16.15;;;14.55;;
14348;SDS011;7258;50.376;8.742;2023-06-22T05:44:12;17.85;;;13.90;;
14348;SDS011;7258;50.376;8.742;2023-06-22T05:46:17;19.13;;;15.05;;
14348;SDS011;7258;50.376;8.742;2023-06-22T05:48:20;20.42;;;14.10;;
14348;SDS011;7258;50.376;8.742;2023-06-22T05:50:23;15.40;;;13.50;;
14348;SDS011;7258;50.376;8.742;2023-06-22T05:52:26;16.35;;;12.93;;
14348;SDS011;7258;50.376;8.742;2023-06-22T05:54:29;15.05;;;13.20;;
14348;SDS011;7258;50.376;8.742;2023-06-22T05:56:33;16.10;;;13.65;;
14348;SDS011;7258;50.376;8.742;2023-06-22T05:58:37;16.90;;;14.02;;
14348;SDS011;7258;50.376;8.742;2023-06-22T06:00:39;17.15;;;13.02;;
14348;SDS011;7258;50.376;8.742;2023-06-22T06:02:43;14.40;;;12.90;;
14348;SDS011;7258;50.376;8.742;2023-06-22T06:04:46;14.40;;;12.52;;
14348;SDS011;7258;50.376;8.742;2023-06-22T06:06:52;19.02;;;13.32;;
14348;SDS011;7258;50.376;8.742;2023-06-22T06:08:55;14.90;;;13.52;;
14348;SDS011;7258;50.376;8.742;2023-06-22T06:10:58;19.65;;;14.38;;
14348;SDS011;7258;50.376;8.742;2023-06-22T06:13:02;17.85;;;13.07;;
14348;SDS011;7258;50.376;8.742;2023-06-22T06:15:06;15.02;;;13.20;;
14348;SDS011;7258;50.376;8.742;2023-06-22T06:17:12;14.73;;;12.93;;
14348;SDS011;7258;50.376;8.742;2023-06-22T06:19:14;14.10;;;12.38;;
14348;SDS011;7258;50.376;8.742;2023-06-22T06:21:17;15.85;;;12.85;;
14348;SDS011;7258;50.376;8.742;2023-06-22T06:23:22;17.67;;;13.02;;
14348;SDS011;7258;50.376;8.742;2023-06-22T06:25:25;14.38;;;12.68;;
14348;SDS011;7258;50.376;8.742;2023-06-22T06:27:28;14.93;;;12.32;;
14348;SDS011;7258;50.376;8.742;2023-06-22T06:29:32;14.75;;;12.15;;
14348;SDS011;7258;50.376;8.742;2023-06-22T06:31:35;13.23;;;11.93;;
14348;SDS011;7258;50.376;8.742;2023-06-22T06:33:38;13.13;;;11.77;;
14348;SDS011;7258;50.376;8.742;2023-06-22T06:35:41;17.33;;;12.05;;
14348;SDS011;7258;50.376;8.742;2023-06-22T06:37:44;12.35;;;11.20;;
14348;SDS011;7258;50.376;8.742;2023-06-22T06:39:48;13.68;;;10.93;;
14348;SDS011;7258;50.376;8.742;2023-06-22T06:41:51;14.10;;;10.55;;
14348;SDS011;7258;50.376;8.742;2023-06-22T06:43:54;12.85;;;11.38;;
14348;SDS011;7258;50.376;8.742;2023-06-22T06:45:58;12.98;;;10.95;;
14348;SDS011;7258;50.376;8.742;2023-06-22T06:48:01;11.88;;;10.50;;
14348;SDS011;7258;50.376;8.742;2023-06-22T06:50:04;11.43;;;10.27;;
14348;SDS011;7258;50.376;8.742;2023-06-22T06:52:08;16.98;;;11.02;;
14348;SDS011;7258;50.376;8.742;2023-06-22T06:54:14;12.43;;;10.57;;
14348;SDS011;7258;50.376;8.742;2023-06-22T06:56:16;11.48;;;10.38;;
14348;SDS011;7258;50.376;8.742;2023-06-22T06:58:19;13.40;;;10.75;;
14348;SDS011;7258;50.376;8.742;2023-06-22T07:00:25;11.23;;;10.20;;
14348;SDS011;7258;50.376;8.742;2023-06-22T07:02:30;11.32;;;9.88;;
14348;SDS011;7258;50.376;8.742;2023-06-22T07:04:34;10.75;;;9.70;;
14348;SDS011;7258;50.376;8.742;2023-06-22T07:06:37;11.32;;;9.57;;
14348;SDS011;7258;50.376;8.742;2023-06-22T07:08:42;11.70;;;10.05;;
14348;SDS011;7258;50.376;8.742;2023-06-22T07:10:45;11.70;;;10.50;;
14348;SDS011;7258;50.376;8.742;2023-06-22T07:12:48;11.13;;;10.02;;
14348;SDS011;7258;50.376;8.742;2023-06-22T07:14:51;11.95;;;9.77;;
14348;SDS011;7258;50.376;8.742;2023-06-22T07:16:56;9.85;;;8.95;;
14348;SDS011;7258;50.376;8.742;2023-06-22T07:19:00;10.93;;;9.30;;
14348;SDS011;7258;50.376;8.742;2023-06-22T07:21:03;10.45;;;9.43;;
14348;SDS011;7258;50.376;8.742;2023-06-22T07:23:08;10.90;;;9.90;;
14348;SDS011;7258;50.376;8.742;2023-06-22T07:25:10;10.90;;;9.90;;
14348;SDS011;7258;50.376;8.742;2023-06-22T07:27:16;10.45;;;9.52;;
14348;SDS011;7258;50.376;8.742;2023-06-22T07:29:20;11.80;;;10.10;;
14348;SDS011;7258;50.376;8.742;2023-06-22T07:31:23;11.85;;;10.80;;
14348;SDS011;7258;50.376;8.742;2023-06-22T07:33:27;11.35;;;10.10;;
14348;SDS011;7258;50.376;8.742;2023-06-22T07:35:31;11.25;;;10.13;;
14348;SDS011;7258;50.376;8.742;2023-06-22T07:37:34;11.57;;;10.43;;
14348;SDS011;7258;50.376;8.742;2023-06-22T07:39:37;10.10;;;9.10;;
14348;SDS011;7258;50.376;8.742;2023-06-22T07:41:40;10.25;;;9.45;;
14348;SDS011;7258;50.376;8.742;2023-06-22T07:43:43;10.52;;;9.52;;
14348;SDS011;7258;50.376;8.742;2023-06-22T07:45:48;10.45;;;9.35;;
14348;SDS011;7258;50.376;8.742;2023-06-22T07:47:53;10.10;;;9.15;;
14348;SDS011;7258;50.376;8.742;2023-06-22T07:49:58;10.88;;;9.88;;
14348;SDS011;7258;50.376;8.742;2023-06-22T07:52:04;15.70;;;9.52;;
14348;SDS011;7258;50.376;8.742;2023-06-22T07:54:08;10.52;;;9.63;;
14348;SDS011;7258;50.376;8.742;2023-06-22T07:56:11;11.27;;;10.18;;
14348;SDS011;7258;50.376;8.742;2023-06-22T07:58:14;11.45;;;10.23;;
14348;SDS011;7258;50.376;8.742;2023-06-22T08:00:20;9.50;;;8.63;;
14348;SDS011;7258;50.376;8.742;2023-06-22T08:02:23;9.80;;;9.00;;
14348;SDS011;7258;50.376;8.742;2023-06-22T08:04:26;9.98;;;9.18;;
14348;SDS011;7258;50.376;8.742;2023-06-22T08:06:30;10.75;;;9.77;;
14348;SDS011;7258;50.376;8.742;2023-06-22T08:08:34;10.40;;;9.23;;
14348;SDS011;7258;50.376;8.742;2023-06-22T08:10:38;10.35;;;9.32;;
14348;SDS011;7258;50.376;8.742;2023-06-22T08:12:41;10.40;;;9.15;;
14348;SDS011;7258;50.376;8.742;2023-06-22T08:14:44;9.30;;;8.45;;
14348;SDS011;7258;50.376;8.742;2023-06-22T08:16:48;9.60;;;8.68;;
14348;SDS011;7258;50.376;8.742;2023-06-22T08:18:51;9.45;;;8.55;;
14348;SDS011;7258;50.376;8.742;2023-06-22T08:20:54;10.00;;;9.07;;
14348;SDS011;7258;50.376;8.742;2023-06-22T08:22:56;8.90;;;8.10;;
14348;SDS011;7258;50.376;8.742;2023-06-22T08:25:08;9.50;;;8.70;;
14348;SDS011;7258;50.376;8.742;2023-06-22T08:27:11;9.90;;;8.13;;
14348;SDS011;7258;50.376;8.742;2023-06-22T08:29:14;8.52;;;7.82;;
14348;SDS011;7258;50.376;8.742;2023-06-22T08:31:17;8.77;;;7.80;;
14348;SDS011;7258;50.376;8.742;2023-06-22T08:33:20;8.27;;;7.68;;
14348;SDS011;7258;50.376;8.742;2023-06-22T08:35:28;8.27;;;7.50;;
14348;SDS011;7258;50.376;8.742;2023-06-22T08:37:32;8.57;;;7.88;;
14348;SDS011;7258;50.376;8.742;2023-06-22T08:39:37;8.13;;;7.22;;
14348;SDS011;7258;50.376;8.742;2023-06-22T08:41:41;7.70;;;7.10;;
14348;SDS011;7258;50.376;8.742;2023-06-22T08:43:44;8.85;;;8.05;;
14348;SDS011;7258;50.376;8.742;2023-06-22T08:45:47;7.57;;;7.03;;
14348;SDS011;7258;50.376;8.742;2023-06-22T08:47:50;8.48;;;7.72;;
14348;SDS011;7258;50.376;8.742;2023-06-22T08:49:54;8.15;;;7.30;;
14348;SDS011;7258;50.376;8.742;2023-06-22T08:51:57;8.38;;;7.63;;
14348;SDS011;7258;50.376;8.742;2023-06-22T08:54:02;8.68;;;7.88;;
14348;SDS011;7258;50.376;8.742;2023-06-22T08:56:06;7.82;;;7.18;;
14348;SDS011;7258;50.376;8.742;2023-06-22T08:58:10;8.95;;;7.50;;
14348;SDS011;7258;50.376;8.742;2023-06-22T09:00:13;8.02;;;7.43;;
14348;SDS011;7258;50.376;8.742;2023-06-22T09:02:21;7.88;;;6.90;;
14348;SDS011;7258;50.376;8.742;2023-06-22T09:04:24;7.80;;;6.90;;
14348;SDS011;7258;50.376;8.742;2023-06-22T09:06:27;7.10;;;6.50;;
14348;SDS011;7258;50.376;8.742;2023-06-22T09:08:32;7.85;;;7.05;;
14348;SDS011;7258;50.376;8.742;2023-06-22T09:10:35;7.72;;;7.05;;
14348;SDS011;7258;50.376;8.742;2023-06-22T09:12:38;7.53;;;6.93;;
14348;SDS011;7258;50.376;8.742;2023-06-22T09:14:43;7.38;;;6.70;;
14348;SDS011;7258;50.376;8.742;2023-06-22T09:16:47;8.45;;;7.63;;
14348;SDS011;7258;50.376;8.742;2023-06-22T09:18:52;7.95;;;7.10;;
14348;SDS011;7258;50.376;8.742;2023-06-22T09:20:56;7.13;;;6.63;;
14348;SDS011;7258;50.376;8.742;2023-06-22T09:22:59;7.95;;;7.18;;
14348;SDS011;7258;50.376;8.742;2023-06-22T09:25:02;7.45;;;6.88;;
14348;SDS011;7258;50.376;8.742;2023-06-22T09:27:08;7.47;;;6.85;;
14348;SDS011;7258;50.376;8.742;2023-06-22T09:29:11;7.55;;;6.95;;
14348;SDS011;7258;50.376;8.742;2023-06-22T09:31:15;7.65;;;6.90;;
14348;SDS011;7258;50.376;8.742;2023-06-22T09:33:18;7.70;;;6.80;;
14348;SDS011;7258;50.376;8.742;2023-06-22T09:35:21;7.97;;;7.18;;
14348;SDS011;7258;50.376;8.742;2023-06-22T09:37:24;7.82;;;6.78;;
14348;SDS011;7258;50.376;8.742;2023-06-22T09:39:27;8.25;;;7.47;;
14348;SDS011;7258;50.376;8.742;2023-06-22T09:41:30;7.20;;;6.50;;
14348;SDS011;7258;50.376;8.742;2023-06-22T09:43:33;7.78;;;6.88;;
14348;SDS011;7258;50.376;8.742;2023-06-22T09:45:36;8.32;;;7.20;;
14348;SDS011;7258;50.376;8.742;2023-06-22T09:47:42;7.88;;;7.18;;
14348;SDS011;7258;50.376;8.742;2023-06-22T09:49:45;7.15;;;6.55;;
14348;SDS011;7258;50.376;8.742;2023-06-22T09:51:49;7.53;;;6.80;;
14348;SDS011;7258;50.376;8.742;2023-06-22T09:53:52;8.90;;;7.00;;
14348;SDS011;7258;50.376;8.742;2023-06-22T09:55:56;7.30;;;6.60;;
14348;SDS011;7258;50.376;8.742;2023-06-22T09:57:59;7.63;;;6.82;;
14348;SDS011;7258;50.376;8.742;2023-06-22T10:00:02;6.95;;;6.20;;
14348;SDS011;7258;50.376;8.742;2023-06-22T10:02:10;7.68;;;6.95;;
14348;SDS011;7258;50.376;8.742;2023-06-22T10:04:14;7.10;;;6.50;;
14348;SDS011;7258;50.376;8.742;2023-06-22T10:06:17;7.63;;;6.85;;
14348;SDS011;7258;50.376;8.742;2023-06-22T10:08:21;6.65;;;6.15;;
14348;SDS011;7258;50.376;8.742;2023-06-22T10:10:24;7.30;;;6.60;;
14348;SDS011;7258;50.376;8.742;2023-06-22T10:12:27;6.95;;;6.38;;
14348;SDS011;7258;50.376;8.742;2023-06-22T10:14:30;7.43;;;6.75;;
14348;SDS011;7258;50.376;8.742;2023-06-22T10:16:35;6.95;;;6.25;;
14348;SDS011;7258;50.376;8.742;2023-06-22T10:18:38;7.32;;;6.72;;
14348;SDS011;7258;50.376;8.742;2023-06-22T10:20:43;6.80;;;6.20;;
14348;SDS011;7258;50.376;8.742;2023-06-22T10:22:45;7.32;;;5.88;;
14348;SDS011;7258;50.376;8.742;2023-06-22T10:24:48;7.47;;;6.88;;
14348;SDS011;7258;50.376;8.742;2023-06-22T10:26:51;7.15;;;6.45;;
14348;SDS011;7258;50.376;8.742;2023-06-22T10:28:54;7.03;;;6.47;;
14348;SDS011;7258;50.376;8.742;2023-06-22T10:31:16;6.82;;;6.00;;
14348;SDS011;7258;50.376;8.742;2023-06-22T10:33:19;7.85;;;6.47;;
14348;SDS011;7258;50.376;8.742;2023-06-22T10:35:22;7.25;;;6.50;;
14348;SDS011;7258;50.376;8.742;2023-06-22T10:37:26;7.07;;;6.55;;
14348;SDS011;7258;50.376;8.742;2023-06-22T10:39:29;7.30;;;6.60;;
14348;SDS011;7258;50.376;8.742;2023-06-22T10:41:32;7.63;;;6.93;;
14348;SDS011;7258;50.376;8.742;2023-06-22T10:43:35;7.03;;;6.43;;
14348;SDS011;7258;50.376;8.742;2023-06-22T10:45:38;7.25;;;6.57;;
14348;SDS011;7258;50.376;8.742;2023-06-22T10:47:41;10.88;;;6.53;;
14348;SDS011;7258;50.376;8.742;2023-06-22T10:49:46;7.35;;;6.65;;
14348;SDS011;7258;50.376;8.742;2023-06-22T10:51:48;6.57;;;6.07;;
14348;SDS011;7258;50.376;8.742;2023-06-22T10:53:53;7.00;;;6.30;;
14348;SDS011;7258;50.376;8.742;2023-06-22T10:55:55;6.93;;;6.32;;
14348;SDS011;7258;50.376;8.742;2023-06-22T10:57:59;6.50;;;5.95;;
14348;SDS011;7258;50.376;8.742;2023-06-22T11:00:02;6.47;;;5.88;;
14348;SDS011;7258;50.376;8.742;2023-06-22T11:02:07;6.35;;;5.78;;
14348;SDS011;7258;50.376;8.742;2023-06-22T11:04:10;8.32;;;6.10;;
14348;SDS011;7258;50.376;8.742;2023-06-22T11:06:13;5.95;;;5.45;;
14348;SDS011;7258;50.376;8.742;2023-06-22T11:08:16;7.97;;;5.68;;
14348;SDS011;7258;50.376;8.742;2023-06-22T11:10:21;7.60;;;5.57;;
14348;SDS011;7258;50.376;8.742;2023-06-22T11:12:24;6.13;;;5.07;;
14348;SDS011;7258;50.376;8.742;2023-06-22T11:14:27;6.22;;;5.53;;
14348;SDS011;7258;50.376;8.742;2023-06-22T11:16:30;6.60;;;5.55;;
14348;SDS011;7258;50.376;8.742;2023-06-22T11:18:33;6.30;;;5.20;;
14348;SDS011;7258;50.376;8.742;2023-06-22T11:20:36;6.95;;;5.75;;
14348;SDS011;7258;50.376;8.742;2023-06-22T11:22:42;6.25;;;5.72;;
14348;SDS011;7258;50.376;8.742;2023-06-22T11:24:45;6.70;;;5.82;;
14348;SDS011;7258;50.376;8.742;2023-06-22T11:26:50;5.35;;;4.90;;
14348;SDS011;7258;50.376;8.742;2023-06-22T11:29:00;6.97;;;5.43;;
14348;SDS011;7258;50.376;8.742;2023-06-22T11:31:06;5.97;;;5.45;;
14348;SDS011;7258;50.376;8.742;2023-06-22T11:33:26;6.50;;;5.53;;
14348;SDS011;7258;50.376;8.742;2023-06-22T11:35:29;6.25;;;5.80;;
14348;SDS011;7258;50.376;8.742;2023-06-22T11:37:39;5.80;;;5.28;;
14348;SDS011;7258;50.376;8.742;2023-06-22T11:39:46;6.53;;;4.88;;
14348;SDS011;7258;50.376;8.742;2023-06-22T11:42:08;8.65;;;5.15;;
14348;SDS011;7258;50.376;8.742;2023-06-22T11:44:14;5.72;;;5.22;;
14348;SDS011;7258;50.376;8.742;2023-06-22T11:46:17;8.70;;;4.88;;
14348;SDS011;7258;50.376;8.742;2023-06-22T11:48:20;6.65;;;5.28;;
14348;SDS011;7258;50.376;8.742;2023-06-22T11:50:25;5.70;;;5.15;;
14348;SDS011;7258;50.376;8.742;2023-06-22T11:52:30;6.32;;;5.60;;
14348;SDS011;7258;50.376;8.742;2023-06-22T11:54:43;6.00;;;5.03;;
14348;SDS011;7258;50.376;8.742;2023-06-22T11:57:04;8.02;;;5.53;;
14348;SDS011;7258;50.376;8.742;2023-06-22T11:59:09;6.20;;;5.38;;
14348;SDS011;7258;50.376;8.742;2023-06-22T12:01:15;6.35;;;5.28;;
14348;SDS011;7258;50.376;8.742;2023-06-22T12:03:19;7.68;;;5.40;;
14348;SDS011;7258;50.376;8.742;2023-06-22T12:05:23;6.80;;;5.90;;
14348;SDS011;7258;50.376;8.742;2023-06-22T12:07:27;6.10;;;5.53;;
14348;SDS011;7258;50.376;8.742;2023-06-22T12:09:33;5.50;;;5.03;;
14348;SDS011;7258;50.376;8.742;2023-06-22T12:11:45;6.72;;;5.88;;
14348;SDS011;7258;50.376;8.742;2023-06-22T12:13:52;10.55;;;5.45;;
14348;SDS011;7258;50.376;8.742;2023-06-22T12:16:05;7.65;;;5.88;;
14348;SDS011;7258;50.376;8.742;2023-06-22T12:18:11;6.60;;;6.00;;
14348;SDS011;7258;50.376;8.742;2023-06-22T12:20:16;7.85;;;5.80;;
14348;SDS011;7258;50.376;8.742;2023-06-22T12:22:20;6.55;;;5.72;;
14348;SDS011;7258;50.376;8.742;2023-06-22T12:24:25;8.40;;;5.65;;
14348;SDS011;7258;50.376;8.742;2023-06-22T12:26:34;6.97;;;5.95;;
14348;SDS011;7258;50.376;8.742;2023-06-22T12:28:37;6.65;;;6.05;;
14348;SDS011;7258;50.376;8.742;2023-06-22T12:30:48;6.68;;;5.97;;
14348;SDS011;7258;50.376;8.742;2023-06-22T12:32:58;9.32;;;6.25;;
14348;SDS011;7258;50.376;8.742;2023-06-22T12:35:01;9.77;;;6.25;;
14348;SDS011;7258;50.376;8.742;2023-06-22T12:37:12;6.57;;;5.97;;
14348;SDS011;7258;50.376;8.742;2023-06-22T12:39:15;7.53;;;6.35;;
14348;SDS011;7258;50.376;8.742;2023-06-22T12:41:24;8.05;;;6.22;;
14348;SDS011;7258;50.376;8.742;2023-06-22T12:43:27;7.00;;;6.30;;
14348;SDS011;7258;50.376;8.742;2023-06-22T12:45:32;7.85;;;6.15;;
14348;SDS011;7258;50.376;8.742;2023-06-22T12:47:36;10.13;;;6.10;;
14348;SDS011;7258;50.376;8.742;2023-06-22T12:49:42;7.85;;;6.40;;
14348;SDS011;7258;50.376;8.742;2023-06-22T12:51:45;6.93;;;6.22;;
14348;SDS011;7258;50.376;8.742;2023-06-22T12:53:48;9.00;;;6.80;;
14348;SDS011;7258;50.376;8.742;2023-06-22T12:55:52;8.35;;;6.43;;
14348;SDS011;7258;50.376;8.742;2023-06-22T12:57:57;8.07;;;5.68;;
14348;SDS011;7258;50.376;8.742;2023-06-22T13:00:00;10.57;;;6.13;;
14348;SDS011;7258;50.376;8.742;2023-06-22T13:02:06;6.65;;;6.05;;
14348;SDS011;7258;50.376;8.742;2023-06-22T13:04:17;8.15;;;6.40;;
14348;SDS011;7258;50.376;8.742;2023-06-22T13:06:22;6.53;;;5.93;;
14348;SDS011;7258;50.376;8.742;2023-06-22T13:08:25;9.45;;;6.80;;
14348;SDS011;7258;50.376;8.742;2023-06-22T13:10:51;10.18;;;5.88;;
14348;SDS011;7258;50.376;8.742;2023-06-22T13:12:56;9.65;;;6.10;;
14348;SDS011;7258;50.376;8.742;2023-06-22T13:15:02;10.30;;;6.40;;
14348;SDS011;7258;50.376;8.742;2023-06-22T13:17:09;11.20;;;6.13;;
14348;SDS011;7258;50.376;8.742;2023-06-22T13:19:12;10.98;;;6.13;;
14348;SDS011;7258;50.376;8.742;2023-06-22T13:21:16;7.88;;;6.45;;
14348;SDS011;7258;50.376;8.742;2023-06-22T13:23:36;8.32;;;6.30;;
14348;SDS011;7258;50.376;8.742;2023-06-22T13:25:49;10.27;;;6.10;;
14348;SDS011;7258;50.376;8.742;2023-06-22T13:28:11;9.02;;;6.57;;
14348;SDS011;7258;50.376;8.742;2023-06-22T13:30:37;8.25;;;6.80;;